createdAt,value
2022-09-02T00:01:40.695Z,12.34
2022-09-02T00:04:13.885Z,12.26
2022-09-02T00:06:43.511Z,12.22
2022-09-02T00:09:16.151Z,12.24
2022-09-02T00:11:46.403Z,12.16
2022-09-02T00:14:17.569Z,12.19
2022-09-02T00:16:51.617Z,12.09
2022-09-02T00:19:21.685Z,12.00
2022-09-02T00:21:50.135Z,12.02
2022-09-02T00:24:19.829Z,11.97
2022-09-02T00:26:48.680Z,11.98
2022-09-02T00:29:17.171Z,11.96
2022-09-02T00:31:47.188Z,11.95
2022-09-02T00:34:15.775Z,11.98
2022-09-02T00:36:43.999Z,12.00
2022-09-02T00:39:11.965Z,12.13
2022-09-02T00:41:42.787Z,12.11
2022-09-02T00:44:13.818Z,12.10
2022-09-02T00:46:42.114Z,12.15
2022-09-02T00:49:13.785Z,12.16
2022-09-02T00:51:45.783Z,12.09
2022-09-02T00:54:16.491Z,12.22
2022-09-02T00:56:48.264Z,12.30
2022-09-02T00:59:23.385Z,12.06
2022-09-02T01:01:51.765Z,12.19
2022-09-02T01:04:19.845Z,12.19
2022-09-02T01:06:48.139Z,12.17
2022-09-02T01:09:17.725Z,12.17
2022-09-02T01:11:53.091Z,12.14
2022-09-02T01:14:20.961Z,12.18
2022-09-02T01:16:53.564Z,12.19
2022-09-02T01:19:25.405Z,12.06
2022-09-02T01:21:56.197Z,12.09
2022-09-02T01:24:27.650Z,11.93
2022-09-02T01:26:57.277Z,11.85
2022-09-02T01:29:28.010Z,11.88
2022-09-02T01:31:56.146Z,11.76
2022-09-02T01:34:24.964Z,11.73
2022-09-02T01:36:54.289Z,11.69
2022-09-02T01:39:22.593Z,11.64
2022-09-02T01:41:50.697Z,11.58
2022-09-02T01:44:19.256Z,11.52
2022-09-02T01:46:47.202Z,11.53
2022-09-02T01:49:15.334Z,11.54
2022-09-02T01:51:43.640Z,11.51
2022-09-02T01:54:13.431Z,11.55
2022-09-02T01:56:41.449Z,11.59
2022-09-02T01:59:12.145Z,11.63
2022-09-02T02:01:40.093Z,11.62
2022-09-02T02:04:13.179Z,11.58
2022-09-02T02:06:43.248Z,11.51
2022-09-02T02:09:14.285Z,11.45
2022-09-02T02:11:42.201Z,11.41
2022-09-02T02:14:10.960Z,11.32
2022-09-02T02:16:39.060Z,11.34
2022-09-02T02:19:07.437Z,11.35
2022-09-02T02:21:36.180Z,11.46
2022-09-02T02:24:05.565Z,11.47
2022-09-02T02:26:35.188Z,11.51
2022-09-02T02:29:03.741Z,11.46
2022-09-02T02:31:31.809Z,11.41
2022-09-02T02:34:00.259Z,11.36
2022-09-02T02:36:28.239Z,11.25
2022-09-02T02:38:56.555Z,11.23
2022-09-02T02:41:24.632Z,11.18
2022-09-02T02:43:54.295Z,11.13
2022-09-02T02:46:22.253Z,11.06
2022-09-02T02:48:50.897Z,11.01
2022-09-02T02:51:19.139Z,10.90
2022-09-02T02:53:47.911Z,10.87
2022-09-02T02:56:15.928Z,10.80
2022-09-02T02:58:44.376Z,10.74
2022-09-02T03:01:13.632Z,10.68
2022-09-02T03:03:43.034Z,10.64
2022-09-02T03:06:11.260Z,10.63
2022-09-02T03:08:39.541Z,10.62
2022-09-02T03:11:08.244Z,10.61
2022-09-02T03:13:37.136Z,10.55
2022-09-02T03:16:06.890Z,10.56
2022-09-02T03:18:36.313Z,10.50
2022-09-02T03:21:08.523Z,10.52
2022-09-02T03:23:37.103Z,10.44
2022-09-02T03:26:10.178Z,10.38
2022-09-02T03:28:38.410Z,10.25
2022-09-02T03:31:06.875Z,10.26
2022-09-02T03:33:36.550Z,10.21
2022-09-02T03:36:04.829Z,10.21
2022-09-02T03:38:33.000Z,10.23
2022-09-02T03:41:00.786Z,10.28
2022-09-02T03:43:28.981Z,10.32
2022-09-02T03:45:56.851Z,10.22
2022-09-02T03:48:24.681Z,10.22
2022-09-02T03:50:53.802Z,10.23
2022-09-02T03:53:22.062Z,10.17
2022-09-02T03:55:50.667Z,10.10
2022-09-02T03:58:19.105Z,10.14
2022-09-02T04:00:51.502Z,10.06
2022-09-02T04:03:20.793Z,10.03
2022-09-02T04:05:49.558Z,10.03
2022-09-02T04:08:19.652Z,9.94
2022-09-02T04:10:47.460Z,9.90
2022-09-02T04:13:15.673Z,9.85
2022-09-02T04:15:44.943Z,9.89
2022-09-02T04:18:30.839Z,9.89
2022-09-02T04:21:14.874Z,9.90
2022-09-02T04:23:44.888Z,9.91
2022-09-02T04:26:14.733Z,9.86
2022-09-02T04:28:43.069Z,9.83
2022-09-02T04:31:14.151Z,9.78
2022-09-02T04:33:42.826Z,9.94
2022-09-02T04:36:12.820Z,9.96
2022-09-02T04:38:44.675Z,9.90
2022-09-02T04:41:15.765Z,9.98
2022-09-02T04:43:44.299Z,9.99
2022-09-02T04:46:14.653Z,9.97
2022-09-02T04:48:45.110Z,10.10
2022-09-02T04:51:16.387Z,10.14
2022-09-02T04:53:47.295Z,10.24
2022-09-02T04:56:17.543Z,10.30
2022-09-02T04:58:46.256Z,10.44
2022-09-02T05:01:16.518Z,10.61
2022-09-02T05:03:46.523Z,10.76
2022-09-02T05:06:16.310Z,10.86
2022-09-02T05:08:46.948Z,10.98
2022-09-02T05:11:18.426Z,11.17
2022-09-02T05:13:51.732Z,11.31
2022-09-02T05:16:21.762Z,11.27
2022-09-02T05:18:50.631Z,11.26
2022-09-02T05:21:22.339Z,11.38
2022-09-02T05:23:52.046Z,11.48
2022-09-02T05:26:22.807Z,11.69
2022-09-02T05:28:51.613Z,11.95
2022-09-02T05:31:22.079Z,11.99
2022-09-02T05:33:50.278Z,12.08
2022-09-02T05:36:20.699Z,11.92
2022-09-02T05:38:49.910Z,12.04
2022-09-02T05:41:26.521Z,12.16
2022-09-02T05:43:59.091Z,12.33
2022-09-02T05:46:30.550Z,12.48
2022-09-02T05:49:10.123Z,12.62
2022-09-02T05:51:44.025Z,13.13
2022-09-02T05:54:14.724Z,13.63
2022-09-02T05:56:45.799Z,14.43
2022-09-02T05:59:13.832Z,16.18
2022-09-02T06:01:42.006Z,18.25
2022-09-02T06:04:10.184Z,20.65
2022-09-02T06:06:38.874Z,21.77
2022-09-02T06:09:08.858Z,23.44
2022-09-02T06:11:40.030Z,22.70
2022-09-02T06:14:09.843Z,24.25
2022-09-02T06:16:39.187Z,25.86
2022-09-02T06:19:07.737Z,26.26
2022-09-02T06:21:36.820Z,25.88
2022-09-02T06:24:06.607Z,26.55
2022-09-02T06:26:34.487Z,25.90
2022-09-02T06:29:02.966Z,28.26
2022-09-02T06:31:34.427Z,28.64
2022-09-02T06:34:04.967Z,29.40
2022-09-02T06:36:33.024Z,29.05
2022-09-02T06:39:02.290Z,28.25
2022-09-02T06:41:33.459Z,28.36
2022-09-02T06:44:03.231Z,29.72
2022-09-02T06:46:35.889Z,30.33
2022-09-02T06:49:04.781Z,30.46
2022-09-02T06:51:35.262Z,31.42
2022-09-02T06:54:05.256Z,31.47
2022-09-02T06:56:33.878Z,32.79
2022-09-02T06:59:02.591Z,32.59
2022-09-02T07:01:34.103Z,33.39
2022-09-02T07:04:20.313Z,32.95
2022-09-02T07:06:50.527Z,31.94
2022-09-02T07:09:20.687Z,32.43
2022-09-02T07:11:50.005Z,33.79
2022-09-02T07:14:19.826Z,34.51
2022-09-02T07:16:51.579Z,35.57
2022-09-02T07:19:20.754Z,34.25
2022-09-02T07:21:50.559Z,32.84
2022-09-02T07:24:19.186Z,34.97
2022-09-02T07:26:47.424Z,34.09
2022-09-02T07:29:15.760Z,35.42
2022-09-02T07:31:47.623Z,32.81
2022-09-02T07:34:17.901Z,32.71
2022-09-02T07:36:46.956Z,34.03
2022-09-02T07:39:16.032Z,35.13
2022-09-02T07:41:45.508Z,33.35
2022-09-02T07:44:14.060Z,32.47
2022-09-02T07:46:42.780Z,32.09
2022-09-02T07:49:20.863Z,31.73
2022-09-02T07:51:52.101Z,30.53
2022-09-02T07:54:22.652Z,29.42
2022-09-02T07:56:51.157Z,30.48
2022-09-02T07:59:19.765Z,28.91
2022-09-02T08:01:49.160Z,29.58
2022-09-02T08:04:19.753Z,31.28
2022-09-02T08:06:48.062Z,30.03
2022-09-02T08:09:16.081Z,29.45
2022-09-02T08:11:47.879Z,27.60
2022-09-02T08:14:19.105Z,29.68
2022-09-02T08:16:48.577Z,29.61
2022-09-02T08:19:18.224Z,29.21
2022-09-02T08:21:46.653Z,31.51
2022-09-02T08:24:14.419Z,31.42
2022-09-02T08:26:42.221Z,33.34
2022-09-02T08:29:10.609Z,34.33
2022-09-02T08:31:39.233Z,33.21
2022-09-02T08:34:07.478Z,32.55
2022-09-02T08:36:36.556Z,34.63
2022-09-02T08:39:05.544Z,33.56
2022-09-02T08:41:43.563Z,33.04
2022-09-02T08:44:15.692Z,32.20
2022-09-02T08:46:44.361Z,32.67
2022-09-02T08:49:22.880Z,32.59
2022-09-02T08:51:56.588Z,31.74
2022-09-02T08:54:35.704Z,30.60
2022-09-02T08:57:04.051Z,31.87
2022-09-02T08:59:32.720Z,33.24
2022-09-02T09:02:10.056Z,32.06
2022-09-02T09:04:59.026Z,32.32
2022-09-02T09:10:17.997Z,33.63
2022-09-02T09:13:16.544Z,32.96
2022-09-02T09:15:50.693Z,33.26
2022-09-02T09:18:22.294Z,32.97
2022-09-02T09:20:50.179Z,32.30
2022-09-02T09:23:29.183Z,31.78
2022-09-02T09:26:09.377Z,30.82
2022-09-02T09:28:42.627Z,32.68
2022-09-02T09:31:17.119Z,33.85
2022-09-02T09:33:59.591Z,33.94
2022-09-02T09:36:55.916Z,33.06
2022-09-02T09:39:28.025Z,32.73
2022-09-02T09:41:57.810Z,32.54
2022-09-02T09:44:37.811Z,32.86
2022-09-02T09:47:08.661Z,33.96
2022-09-02T09:49:37.469Z,31.96
2022-09-02T09:52:05.723Z,30.90
2022-09-02T09:54:35.195Z,30.70
2022-09-02T09:57:18.034Z,30.23
2022-09-02T09:59:51.105Z,30.95
2022-09-02T10:02:22.980Z,28.96
2022-09-02T10:04:52.068Z,28.85
2022-09-02T10:07:38.450Z,27.42
2022-09-02T10:10:17.832Z,26.28
2022-09-02T10:12:47.568Z,29.32
2022-09-02T10:15:16.058Z,30.68
2022-09-02T10:17:54.516Z,26.24
2022-09-02T10:20:33.116Z,26.20
2022-09-02T10:23:12.891Z,26.51
2022-09-02T10:25:57.437Z,25.08
2022-09-02T10:28:41.322Z,24.39
2022-09-02T10:31:19.680Z,25.89
2022-09-02T10:34:01.533Z,26.34
2022-09-02T10:36:36.297Z,30.71
2022-09-02T10:39:17.649Z,31.72
2022-09-02T10:41:48.129Z,33.02
2022-09-02T10:44:27.920Z,31.32
2022-09-02T10:47:01.614Z,29.89
2022-09-02T10:49:45.996Z,28.87
2022-09-02T10:52:26.910Z,29.49
2022-09-02T10:55:04.491Z,28.70
2022-09-02T10:57:39.738Z,29.14
2022-09-02T11:00:15.738Z,28.84
2022-09-02T11:02:49.096Z,29.51
2022-09-02T11:05:21.321Z,26.10
2022-09-02T11:07:59.151Z,25.75
2022-09-02T11:10:32.406Z,25.25
2022-09-02T11:13:10.387Z,24.20
2022-09-02T11:15:47.916Z,24.12
2022-09-02T11:18:23.647Z,24.42
2022-09-02T11:21:04.934Z,25.51
2022-09-02T11:23:39.749Z,26.39
2022-09-02T11:26:16.347Z,25.91
2022-09-02T11:28:55.451Z,26.33
2022-09-02T11:31:34.618Z,26.26
2022-09-02T11:34:22.032Z,25.97
2022-09-02T11:36:50.888Z,25.67
2022-09-02T11:39:49.524Z,25.74
2022-09-02T11:42:37.730Z,26.42
2022-09-02T11:45:29.141Z,27.03
2022-09-02T11:48:20.770Z,26.62
2022-09-02T11:51:02.284Z,27.11
2022-09-02T11:53:32.860Z,26.29
2022-09-02T11:56:04.457Z,26.53
2022-09-02T11:58:38.313Z,26.64
2022-09-02T12:01:25.783Z,25.96
2022-09-02T12:04:55.404Z,26.22
2022-09-02T12:07:26.849Z,26.47
2022-09-02T12:09:57.914Z,26.64
2022-09-02T12:13:03.413Z,25.77
2022-09-02T12:15:36.658Z,25.11
2022-09-02T12:18:37.140Z,25.63
2022-09-02T12:21:11.088Z,25.44
2022-09-02T12:24:21.293Z,25.34
2022-09-02T12:27:29.725Z,25.01
2022-09-02T12:30:02.186Z,25.75
2022-09-02T12:33:04.908Z,24.40
2022-09-02T12:35:54.505Z,23.92
2022-09-02T12:38:31.326Z,24.84
2022-09-02T12:41:23.721Z,24.40
2022-09-02T12:44:04.453Z,24.29
2022-09-02T12:46:48.277Z,24.43
2022-09-02T12:49:30.248Z,24.45
2022-09-02T12:52:02.633Z,24.54
2022-09-02T12:54:42.542Z,24.79
2022-09-02T12:57:12.016Z,24.28
2022-09-02T12:59:42.435Z,24.89
2022-09-02T13:02:30.294Z,24.30
2022-09-02T13:05:11.639Z,24.04
2022-09-02T13:08:18.603Z,23.62
2022-09-02T13:11:02.504Z,23.18
2022-09-02T13:14:05.280Z,23.01
2022-09-02T13:16:40.574Z,23.53
2022-09-02T13:19:45.247Z,23.88
2022-09-02T13:22:38.855Z,24.51
2022-09-02T13:25:36.545Z,24.71
2022-09-02T13:28:35.436Z,24.29
2022-09-02T13:31:14.776Z,24.59
2022-09-02T13:33:44.617Z,23.53
2022-09-02T13:36:20.470Z,23.67
2022-09-02T13:38:48.606Z,23.87
2022-09-02T13:41:30.754Z,23.21
2022-09-02T13:44:12.044Z,23.72
2022-09-02T13:46:48.621Z,23.85
2022-09-02T13:49:22.701Z,23.36
2022-09-02T13:51:53.782Z,23.55
2022-09-02T13:54:36.203Z,24.04
2022-09-02T13:57:09.511Z,24.28
2022-09-02T13:59:40.688Z,23.69
2022-09-02T14:02:26.600Z,23.71
2022-09-02T14:04:59.107Z,23.64
2022-09-02T14:07:33.670Z,23.34
2022-09-02T14:10:05.116Z,23.29
2022-09-02T14:12:36.806Z,23.42
2022-09-02T14:15:07.926Z,23.30
2022-09-02T14:17:36.133Z,23.41
2022-09-02T14:20:20.358Z,23.44
2022-09-02T14:22:54.847Z,23.44
2022-09-02T14:25:27.220Z,23.40
2022-09-02T14:27:58.558Z,22.97
2022-09-02T14:30:32.636Z,23.10
2022-09-02T14:33:27.156Z,23.01
2022-09-02T14:36:00.284Z,22.66
2022-09-02T14:38:30.075Z,22.81
2022-09-02T14:41:03.438Z,22.91
2022-09-02T14:43:43.395Z,23.14
2022-09-02T14:46:28.058Z,23.30
2022-09-02T14:49:03.897Z,23.50
2022-09-02T14:51:39.603Z,23.25
2022-09-02T14:54:08.406Z,23.07
2022-09-02T14:56:48.650Z,22.95
2022-09-02T14:59:18.163Z,23.21
2022-09-02T15:01:49.457Z,23.15
2022-09-02T15:04:19.387Z,22.94
2022-09-02T15:06:48.696Z,22.52
2022-09-02T15:09:17.611Z,22.32
2022-09-02T15:11:50.774Z,22.30
2022-09-02T15:14:19.955Z,22.61
2022-09-02T15:16:48.896Z,22.41
2022-09-02T15:19:16.717Z,22.58
2022-09-02T15:21:44.809Z,22.47
2022-09-02T15:24:12.616Z,22.44
2022-09-02T15:26:40.918Z,22.40
2022-09-02T15:29:08.579Z,22.54
2022-09-02T15:31:38.005Z,22.63
2022-09-02T15:34:05.843Z,22.76
2022-09-02T15:36:33.975Z,22.74
2022-09-02T15:39:01.787Z,22.69
2022-09-02T15:41:31.726Z,22.39
2022-09-02T15:44:00.649Z,22.43
2022-09-02T15:46:30.769Z,22.23
2022-09-02T15:49:03.218Z,22.38
2022-09-02T15:51:31.371Z,22.28
2022-09-02T15:54:01.499Z,22.02
2022-09-02T15:56:31.914Z,22.22
2022-09-02T15:59:01.304Z,22.26
2022-09-02T16:01:31.807Z,22.16
2022-09-02T16:04:02.743Z,22.14
2022-09-02T16:06:31.508Z,21.94
2022-09-02T16:08:59.296Z,22.10
2022-09-02T16:11:28.169Z,22.14
2022-09-02T16:13:56.784Z,21.98
2022-09-02T16:16:24.637Z,21.90
2022-09-02T16:18:54.886Z,21.73
2022-09-02T16:21:24.032Z,21.62
2022-09-02T16:23:53.041Z,21.65
2022-09-02T16:26:25.244Z,21.73
2022-09-02T16:28:55.843Z,21.56
2022-09-02T16:31:25.455Z,21.37
2022-09-02T16:33:54.628Z,21.32
2022-09-02T16:36:25.212Z,21.37
2022-09-02T16:38:57.257Z,21.50
2022-09-02T16:41:27.195Z,21.39
2022-09-02T16:43:55.380Z,21.47
2022-09-02T16:46:24.028Z,21.44
2022-09-02T16:48:52.001Z,21.40
2022-09-02T16:51:20.099Z,21.34
2022-09-02T16:53:53.387Z,21.21
2022-09-02T16:56:21.948Z,21.31
2022-09-02T16:58:49.795Z,21.24
2022-09-02T17:01:18.333Z,21.18
2022-09-02T17:03:46.765Z,21.14
2022-09-02T17:06:15.790Z,20.88
2022-09-02T17:08:43.812Z,20.78
2022-09-02T17:11:20.109Z,20.75
2022-09-02T17:13:48.929Z,20.58
2022-09-02T17:16:17.333Z,20.64
2022-09-02T17:18:45.347Z,20.75
2022-09-02T17:21:18.720Z,20.45
2022-09-02T17:23:46.575Z,20.52
2022-09-02T17:26:16.693Z,20.45
2022-09-02T17:28:47.664Z,20.42
2022-09-02T17:31:20.440Z,20.14
2022-09-02T17:33:49.128Z,20.20
2022-09-02T17:36:17.123Z,20.19
2022-09-02T17:38:45.316Z,20.04
2022-09-02T17:41:31.644Z,19.82
2022-09-02T17:44:01.363Z,19.61
2022-09-02T17:46:29.125Z,19.59
2022-09-02T17:49:15.903Z,19.56
2022-09-02T17:51:44.654Z,19.60
2022-09-02T17:54:14.309Z,19.42
2022-09-02T17:57:00.659Z,19.49
2022-09-02T17:59:47.968Z,19.27
2022-09-02T18:02:34.733Z,19.32
2022-09-02T18:05:12.695Z,19.23
2022-09-02T18:07:46.913Z,19.08
2022-09-02T18:10:19.241Z,19.04
2022-09-02T18:12:47.092Z,18.98
2022-09-02T18:15:18.882Z,18.96
2022-09-02T18:17:49.155Z,18.79
2022-09-02T18:20:24.498Z,18.68
2022-09-02T18:23:24.255Z,18.66
2022-09-02T18:26:01.316Z,18.74
2022-09-02T18:28:49.732Z,18.24
2022-09-02T18:31:35.268Z,18.20
2022-09-02T18:34:19.701Z,18.18
2022-09-02T18:36:56.651Z,18.03
2022-09-02T18:39:49.793Z,17.94
2022-09-02T18:42:28.671Z,17.84
2022-09-02T18:45:05.346Z,17.76
2022-09-02T18:47:42.046Z,17.49
2022-09-02T18:50:22.092Z,17.37
2022-09-02T18:53:01.196Z,17.32
2022-09-02T18:55:36.330Z,17.32
2022-09-02T18:58:10.931Z,17.17
2022-09-02T19:00:46.493Z,17.10
2022-09-02T19:03:15.783Z,17.20
2022-09-02T19:05:43.522Z,16.93
2022-09-02T19:08:34.309Z,16.97
2022-09-02T19:11:05.806Z,16.77
2022-09-02T19:13:44.046Z,16.89
2022-09-02T19:16:12.710Z,16.91
2022-09-02T19:18:42.028Z,17.02
2022-09-02T19:21:10.512Z,16.91
2022-09-02T19:23:38.420Z,16.80
2022-09-02T19:26:06.739Z,16.65
2022-09-02T19:28:34.850Z,16.44
2022-09-02T19:31:05.023Z,16.45
2022-09-02T19:33:35.441Z,16.25
2022-09-02T19:36:04.655Z,16.53
2022-09-02T19:38:32.856Z,16.59
2022-09-02T19:41:01.707Z,16.36
2022-09-02T19:43:29.839Z,16.13
2022-09-02T19:45:58.264Z,15.88
2022-09-02T19:48:26.484Z,15.82
2022-09-02T19:50:55.203Z,15.82
2022-09-02T19:53:30.373Z,15.64
2022-09-02T19:55:58.950Z,15.61
2022-09-02T19:58:27.038Z,15.35
2022-09-02T20:00:56.496Z,15.42
2022-09-02T20:03:24.357Z,15.27
2022-09-02T20:05:52.852Z,15.18
2022-09-02T20:08:21.203Z,15.01
2022-09-02T20:10:56.730Z,14.95
2022-09-02T20:13:25.781Z,14.86
2022-09-02T20:15:54.610Z,14.87
2022-09-02T20:18:26.952Z,14.75
2022-09-02T20:20:57.283Z,14.72
2022-09-02T20:23:26.190Z,14.67
2022-09-02T20:26:11.093Z,14.65
2022-09-02T20:28:48.096Z,14.68
2022-09-02T20:31:30.862Z,14.62
2022-09-02T20:34:17.858Z,14.52
2022-09-02T20:36:56.162Z,14.50
2022-09-02T20:39:44.550Z,14.38
2022-09-02T20:42:31.159Z,14.33
2022-09-02T20:45:06.311Z,14.18
2022-09-02T20:47:52.556Z,13.99
2022-09-02T20:50:41.185Z,14.01
2022-09-02T20:53:25.648Z,14.01
2022-09-02T20:55:56.949Z,14.01
2022-09-02T20:58:41.762Z,14.01
2022-09-02T21:01:10.974Z,13.90
2022-09-02T21:03:52.338Z,13.97
2022-09-02T21:06:22.188Z,13.81
2022-09-02T21:09:00.865Z,13.76
2022-09-02T21:11:37.115Z,13.69
2022-09-02T21:14:12.451Z,13.71
2022-09-02T21:16:43.875Z,13.65
2022-09-02T21:19:17.390Z,13.61
2022-09-02T21:21:51.229Z,13.57
2022-09-02T21:24:24.345Z,13.55
2022-09-02T21:26:58.590Z,13.43
2022-09-02T21:29:34.568Z,13.45
2022-09-02T21:32:09.507Z,13.44
2022-09-02T21:34:40.639Z,13.43
2022-09-02T21:37:10.352Z,13.44
2022-09-02T21:39:43.241Z,13.47
2022-09-02T21:42:21.709Z,13.53
2022-09-02T21:45:03.643Z,13.67
2022-09-02T21:47:37.755Z,13.79
2022-09-02T21:50:12.101Z,13.91
2022-09-02T21:52:59.927Z,14.02
2022-09-02T21:55:44.931Z,14.14
2022-09-02T21:58:29.038Z,14.06
2022-09-02T22:01:06.355Z,14.10
2022-09-02T22:03:41.862Z,13.97
2022-09-02T22:06:15.056Z,13.93
2022-09-02T22:08:50.461Z,13.97
2022-09-02T22:11:24.325Z,14.07
2022-09-02T22:13:52.110Z,14.00
2022-09-02T22:16:32.982Z,13.95
2022-09-02T22:19:05.329Z,13.98
2022-09-02T22:21:40.232Z,13.81
2022-09-02T22:24:08.357Z,13.72
2022-09-02T22:26:42.378Z,13.61
2022-09-02T22:29:18.036Z,13.45
2022-09-02T22:31:51.328Z,13.26
2022-09-02T22:34:20.092Z,13.17
2022-09-02T22:37:00.772Z,13.07
2022-09-02T22:39:36.426Z,13.06
2022-09-02T22:42:18.108Z,13.02
2022-09-02T22:45:11.214Z,13.04
2022-09-02T22:48:04.105Z,12.98
2022-09-02T22:50:57.424Z,12.92
2022-09-02T22:53:25.253Z,12.72
2022-09-02T22:56:03.268Z,12.76
2022-09-02T22:58:51.364Z,12.83
2022-09-02T23:01:26.184Z,12.74
2022-09-02T23:04:11.294Z,12.61
2022-09-02T23:06:39.918Z,12.55
2022-09-02T23:09:11.065Z,12.47
2022-09-02T23:11:47.912Z,12.45
2022-09-02T23:14:28.535Z,12.30
2022-09-02T23:17:11.408Z,12.37
2022-09-02T23:19:56.586Z,12.28
2022-09-02T23:22:34.513Z,12.24
2022-09-02T23:25:20.088Z,12.19
2022-09-02T23:27:54.579Z,12.16
2022-09-02T23:30:22.308Z,12.24
2022-09-02T23:33:07.277Z,12.20
2022-09-02T23:35:47.993Z,12.14
2022-09-02T23:38:34.635Z,12.08
2022-09-02T23:41:08.515Z,11.96
2022-09-02T23:43:37.285Z,11.81
2022-09-02T23:46:18.295Z,11.72
2022-09-02T23:48:55.245Z,11.69
2022-09-02T23:51:32.246Z,11.58
2022-09-02T23:54:21.192Z,11.57
2022-09-02T23:57:05.055Z,11.51
2022-09-02T23:59:51.370Z,11.49
